CPA139 VHHH-YSSY
Flight info
| Callsign | CPA139 |
|---|---|
| Flight time | N/A |
| Altitude | 33000 |
| Route | DALOL DCT SABNO A583 MASUN A583 ZAM A461 AMN R340 GUTEV DCT RINLA DCT ENRES DCT NIVED DCT 2156S14155E 2453S14524E DCT SGE Y161 OVNOM H652 BOREE |
| Aircraft | B77W/H-SDE1E2E3FGHIJ2J3J4J5M1RWXY/LB1D1 |
Departure
| Time | 2026-05-04 02:01 |
|---|---|
| Airport | Hong Kong International Airport (VHHH) |
Arrival
| Time | N/A |
|---|---|
| Airport | Sydney Kingsford Smith International Airport (YSSY) |
| Time | Latitude | Longitude | Altitude | Speed | Heading |
|---|---|---|---|---|---|
| 2026-05-04 01:08 | 22.31473 | 113.92556 | 41 ft | 0 kts | 206° |
| 2026-05-04 01:46 | 22.31482 | 113.92561 | 41 ft | 2 kts | 206° |
| 2026-05-04 01:46 | 22.31495 | 113.92568 | 41 ft | 2 kts | 206° |
| 2026-05-04 01:46 | 22.31509 | 113.92575 | 41 ft | 2 kts | 208° |
| 2026-05-04 01:47 | 22.31521 | 113.92584 | 41 ft | 2 kts | 225° |
| 2026-05-04 01:47 | 22.31530 | 113.92596 | 41 ft | 2 kts | 238° |
| 2026-05-04 01:47 | 22.31537 | 113.92611 | 41 ft | 2 kts | 251° |
| 2026-05-04 01:47 | 22.31541 | 113.92626 | 41 ft | 2 kts | 264° |
| 2026-05-04 01:48 | 22.31541 | 113.92642 | 41 ft | 2 kts | 277° |
| 2026-05-04 01:48 | 22.31538 | 113.92657 | 41 ft | 2 kts | 290° |
| 2026-05-04 01:48 | 22.31535 | 113.92665 | 41 ft | 0 kts | 296° |
| 2026-05-04 01:48 | 22.31534 | 113.92666 | 41 ft | 0 kts | 296° |
| 2026-05-04 01:49 | 22.31536 | 113.92662 | 41 ft | 1 kts | 295° |
| 2026-05-04 01:49 | 22.31547 | 113.92635 | 41 ft | 6 kts | 294° |
| 2026-05-04 01:50 | 22.31570 | 113.92580 | 41 ft | 9 kts | 294° |
| 2026-05-04 01:50 | 22.31604 | 113.92503 | 41 ft | 12 kts | 295° |
| 2026-05-04 01:50 | 22.31640 | 113.92406 | 41 ft | 14 kts | 276° |
| 2026-05-04 01:50 | 22.31624 | 113.92310 | 41 ft | 12 kts | 253° |
| 2026-05-04 01:51 | 22.31593 | 113.92217 | 41 ft | 14 kts | 251° |
| 2026-05-04 01:51 | 22.31562 | 113.92121 | 41 ft | 12 kts | 251° |
| 2026-05-04 01:51 | 22.31535 | 113.92036 | 41 ft | 11 kts | 251° |
| 2026-05-04 01:51 | 22.31511 | 113.91962 | 41 ft | 9 kts | 251° |
| 2026-05-04 01:52 | 22.31482 | 113.91904 | 41 ft | 8 kts | 218° |
| 2026-05-04 01:52 | 22.31422 | 113.91896 | 41 ft | 11 kts | 165° |
| 2026-05-04 01:52 | 22.31321 | 113.91932 | 41 ft | 18 kts | 160° |
| 2026-05-04 01:52 | 22.31187 | 113.91981 | 41 ft | 21 kts | 161° |
| 2026-05-04 01:53 | 22.31054 | 113.92033 | 41 ft | 19 kts | 156° |
| 2026-05-04 01:53 | 22.30936 | 113.92077 | 41 ft | 16 kts | 161° |
| 2026-05-04 01:53 | 22.30842 | 113.92110 | 41 ft | 10 kts | 162° |
| 2026-05-04 01:53 | 22.30777 | 113.92133 | 41 ft | 7 kts | 162° |
| 2026-05-04 01:54 | 22.30754 | 113.92142 | 41 ft | 1 kts | 160° |
| 2026-05-04 01:54 | 22.30749 | 113.92144 | 41 ft | 0 kts | 160° |
| 2026-05-04 01:54 | 22.30719 | 113.92156 | 41 ft | 8 kts | 160° |
| 2026-05-04 01:54 | 22.30654 | 113.92136 | 41 ft | 11 kts | 231° |
| 2026-05-04 01:55 | 22.30620 | 113.92051 | 41 ft | 13 kts | 248° |
| 2026-05-04 01:55 | 22.30584 | 113.91943 | 41 ft | 18 kts | 252° |
| 2026-05-04 01:55 | 22.30540 | 113.91801 | 41 ft | 19 kts | 248° |
| 2026-05-04 01:55 | 22.30499 | 113.91673 | 41 ft | 16 kts | 250° |
| 2026-05-04 01:56 | 22.30464 | 113.91563 | 41 ft | 14 kts | 252° |
| 2026-05-04 01:56 | 22.30432 | 113.91458 | 41 ft | 16 kts | 251° |
| 2026-05-04 01:56 | 22.30384 | 113.91312 | 41 ft | 23 kts | 250° |
| 2026-05-04 01:56 | 22.30330 | 113.91138 | 41 ft | 25 kts | 252° |
| 2026-05-04 01:57 | 22.30274 | 113.90954 | 41 ft | 25 kts | 251° |
| 2026-05-04 01:57 | 22.30212 | 113.90771 | 41 ft | 26 kts | 250° |
| 2026-05-04 01:57 | 22.30149 | 113.90578 | 41 ft | 27 kts | 252° |
| 2026-05-04 01:57 | 22.30084 | 113.90382 | 41 ft | 28 kts | 249° |
| 2026-05-04 01:58 | 22.30013 | 113.90186 | 41 ft | 26 kts | 250° |
| 2026-05-04 01:58 | 22.29962 | 113.90006 | 41 ft | 23 kts | 253° |
| 2026-05-04 01:58 | 22.29911 | 113.89844 | 41 ft | 20 kts | 250° |
| 2026-05-04 01:58 | 22.29883 | 113.89764 | 41 ft | 9 kts | 244° |
| 2026-05-04 01:59 | 22.29845 | 113.89732 | 41 ft | 6 kts | 187° |
| 2026-05-04 01:59 | 22.29800 | 113.89740 | 41 ft | 7 kts | 160° |
| 2026-05-04 01:59 | 22.29732 | 113.89770 | 41 ft | 12 kts | 157° |
| 2026-05-04 01:59 | 22.29663 | 113.89811 | 41 ft | 10 kts | 131° |
| 2026-05-04 02:00 | 22.29647 | 113.89877 | 41 ft | 8 kts | 82° |
| 2026-05-04 02:00 | 22.29706 | 113.90069 | 41 ft | 61 kts | 68° |
| 2026-05-04 02:00 | 22.29939 | 113.90784 | 41 ft | 139 kts | 71° |
| 2026-05-04 02:00 | 22.30321 | 113.91990 | 189 ft | 192 kts | 71° |
| 2026-05-04 02:01 | 22.30770 | 113.93459 | 800 ft | 217 kts | 69° |
| 2026-05-04 02:01 | 22.31233 | 113.94850 | 2204 ft | 192 kts | 68° |
| 2026-05-04 02:01 | 22.31691 | 113.96238 | 2670 ft | 204 kts | 69° |
| 2026-05-04 02:01 | 22.32180 | 113.97751 | 3013 ft | 223 kts | 70° |
| 2026-05-04 02:02 | 22.32709 | 113.99397 | 3405 ft | 241 kts | 70° |
| 2026-05-04 02:02 | 22.33279 | 114.01170 | 3871 ft | 259 kts | 70° |
| 2026-05-04 02:02 | 22.33808 | 114.03062 | 4545 ft | 268 kts | 79° |
| 2026-05-04 02:02 | 22.33780 | 114.05101 | 5194 ft | 276 kts | 107° |
| 2026-05-04 02:03 | 22.32923 | 114.06916 | 5940 ft | 277 kts | 133° |
| 2026-05-04 02:03 | 22.31430 | 114.08222 | 6660 ft | 278 kts | 156° |
| 2026-05-04 02:03 | 22.29587 | 114.08846 | 7329 ft | 280 kts | 176° |
| 2026-05-04 02:03 | 22.27632 | 114.08861 | 8054 ft | 282 kts | 186° |
| 2026-05-04 02:04 | 22.25667 | 114.08746 | 8779 ft | 286 kts | 185° |
| 2026-05-04 02:04 | 22.23681 | 114.08686 | 9493 ft | 289 kts | 185° |
| 2026-05-04 02:04 | 22.21669 | 114.08657 | 10194 ft | 293 kts | 183° |
| 2026-05-04 02:04 | 22.19566 | 114.08836 | 10653 ft | 310 kts | 173° |
| 2026-05-04 02:05 | 22.17418 | 114.09461 | 11020 ft | 330 kts | 162° |
| 2026-05-04 02:05 | 22.15307 | 114.10594 | 11414 ft | 350 kts | 150° |
| 2026-05-04 02:05 | 22.13357 | 114.12268 | 11795 ft | 370 kts | 137° |
| 2026-05-04 02:05 | 22.11704 | 114.14506 | 12194 ft | 390 kts | 123° |
| 2026-05-04 02:06 | 22.10497 | 114.17175 | 12711 ft | 404 kts | 112° |
| 2026-05-04 02:06 | 22.09561 | 114.20021 | 13399 ft | 409 kts | 112° |
| 2026-05-04 02:06 | 22.08508 | 114.22913 | 14135 ft | 411 kts | 117° |
| 2026-05-04 02:06 | 22.07124 | 114.25575 | 14794 ft | 412 kts | 128° |
| 2026-05-04 02:07 | 22.05290 | 114.27931 | 15473 ft | 411 kts | 140° |
| 2026-05-04 02:07 | 22.03086 | 114.29909 | 16171 ft | 410 kts | 147° |
| 2026-05-04 02:07 | 22.00774 | 114.31726 | 16840 ft | 414 kts | 148° |
| 2026-05-04 02:07 | 21.98453 | 114.33540 | 17495 ft | 417 kts | 148° |
| 2026-05-04 02:08 | 21.96086 | 114.35393 | 18122 ft | 421 kts | 148° |
| 2026-05-04 02:08 | 21.93722 | 114.37246 | 18648 ft | 427 kts | 148° |
| 2026-05-04 02:08 | 21.91295 | 114.39151 | 19204 ft | 432 kts | 148° |
| 2026-05-04 02:08 | 21.88891 | 114.41080 | 19738 ft | 438 kts | 144° |
| 2026-05-04 02:09 | 21.86681 | 114.43391 | 20264 ft | 448 kts | 134° |
| 2026-05-04 02:09 | 21.84817 | 114.46134 | 20811 ft | 456 kts | 124° |
| 2026-05-04 02:09 | 21.83391 | 114.49194 | 21320 ft | 465 kts | 114° |
| 2026-05-04 02:09 | 21.82405 | 114.52550 | 21814 ft | 472 kts | 107° |
| 2026-05-04 02:10 | 21.81584 | 114.55949 | 22325 ft | 476 kts | 107° |
| 2026-05-04 02:10 | 21.80738 | 114.59424 | 22818 ft | 481 kts | 107° |
| 2026-05-04 02:10 | 21.79882 | 114.62882 | 23291 ft | 485 kts | 107° |
| 2026-05-04 02:10 | 21.78995 | 114.66411 | 23782 ft | 489 kts | 108° |
| 2026-05-04 02:11 | 21.78105 | 114.69920 | 24213 ft | 494 kts | 108° |
| 2026-05-04 02:11 | 21.77167 | 114.73505 | 24640 ft | 498 kts | 111° |
| 2026-05-04 02:11 | 21.75874 | 114.76917 | 25065 ft | 498 kts | 120° |
| 2026-05-04 02:11 | 21.74073 | 114.80147 | 25503 ft | 498 kts | 130° |
| 2026-05-04 02:12 | 21.71883 | 114.82969 | 26013 ft | 495 kts | 139° |
| 2026-05-04 02:12 | 21.69300 | 114.85425 | 26495 ft | 492 kts | 148° |
| 2026-05-04 02:12 | 21.66456 | 114.87402 | 26911 ft | 490 kts | 156° |
| 2026-05-04 02:12 | 21.63339 | 114.88914 | 27337 ft | 487 kts | 165° |
| 2026-05-04 02:13 | 21.60144 | 114.90066 | 27767 ft | 489 kts | 167° |
| 2026-05-04 02:13 | 21.56870 | 114.91209 | 28158 ft | 493 kts | 167° |
| 2026-05-04 02:13 | 21.53620 | 114.92358 | 28580 ft | 497 kts | 167° |
| 2026-05-04 02:13 | 21.50353 | 114.93525 | 29011 ft | 500 kts | 167° |
| 2026-05-04 02:14 | 21.47028 | 114.94722 | 29514 ft | 501 kts | 166° |
| 2026-05-04 02:14 | 21.43713 | 114.95924 | 30177 ft | 498 kts | 166° |
| 2026-05-04 02:14 | 21.40468 | 114.97105 | 30885 ft | 494 kts | 166° |
| 2026-05-04 02:14 | 21.37246 | 114.98279 | 31506 ft | 492 kts | 166° |
| 2026-05-04 02:15 | 21.33988 | 114.99468 | 32030 ft | 491 kts | 166° |
| 2026-05-04 02:15 | 21.30780 | 115.00639 | 32510 ft | 490 kts | 166° |
| 2026-05-04 02:15 | 21.27533 | 115.01826 | 32980 ft | 490 kts | 166° |
| 2026-05-04 02:15 | 21.24270 | 115.03019 | 33031 ft | 493 kts | 166° |
| 2026-05-04 02:16 | 21.17845 | 115.05370 | 33032 ft | 488 kts | 166° |
| 2026-05-04 02:16 | 21.11417 | 115.07721 | 33032 ft | 487 kts | 166° |
| 2026-05-04 02:17 | 21.05008 | 115.10064 | 33032 ft | 487 kts | 166° |
| 2026-05-04 02:17 | 20.99656 | 115.12019 | 33029 ft | 486 kts | 166° |
| 2026-05-04 02:18 | 20.92194 | 115.14743 | 33028 ft | 486 kts | 166° |
| 2026-05-04 02:18 | 20.85759 | 115.17089 | 33027 ft | 488 kts | 166° |
| 2026-05-04 02:19 | 20.79313 | 115.19438 | 33027 ft | 488 kts | 166° |
| 2026-05-04 02:19 | 20.72879 | 115.21780 | 33027 ft | 488 kts | 166° |
| 2026-05-04 02:20 | 20.66437 | 115.24123 | 33024 ft | 489 kts | 166° |
| 2026-05-04 02:20 | 20.59997 | 115.26464 | 33026 ft | 488 kts | 166° |
| 2026-05-04 02:21 | 20.53562 | 115.28800 | 33024 ft | 489 kts | 166° |
| 2026-05-04 02:21 | 20.47122 | 115.31136 | 33020 ft | 488 kts | 166° |
| 2026-05-04 02:22 | 20.40673 | 115.33473 | 33020 ft | 489 kts | 166° |
| 2026-05-04 02:22 | 20.34221 | 115.35810 | 33021 ft | 489 kts | 165° |
| 2026-05-04 02:23 | 20.27770 | 115.38144 | 33019 ft | 489 kts | 165° |
| 2026-05-04 02:23 | 20.21313 | 115.40478 | 33014 ft | 490 kts | 165° |
| 2026-05-04 02:24 | 20.15973 | 115.42406 | 33011 ft | 489 kts | 165° |
| 2026-05-04 02:24 | 20.08397 | 115.45140 | 33008 ft | 490 kts | 165° |
| 2026-05-04 02:25 | 20.01927 | 115.47473 | 33011 ft | 490 kts | 165° |
| 2026-05-04 02:25 | 19.95505 | 115.49786 | 33007 ft | 491 kts | 165° |
| 2026-05-04 02:26 | 19.88982 | 115.52134 | 33008 ft | 491 kts | 165° |
| 2026-05-04 02:26 | 19.82559 | 115.54444 | 33006 ft | 490 kts | 165° |
| 2026-05-04 02:27 | 19.76084 | 115.56770 | 33007 ft | 490 kts | 165° |
| 2026-05-04 02:27 | 19.69623 | 115.59090 | 33004 ft | 489 kts | 165° |
| 2026-05-04 02:28 | 19.63180 | 115.61401 | 33007 ft | 489 kts | 165° |
| 2026-05-04 02:28 | 19.56714 | 115.63718 | 33008 ft | 491 kts | 165° |
| 2026-05-04 02:29 | 19.50233 | 115.66038 | 32996 ft | 491 kts | 166° |
| 2026-05-04 02:29 | 19.43745 | 115.68359 | 32994 ft | 492 kts | 166° |
| 2026-05-04 02:30 | 19.37240 | 115.70684 | 32997 ft | 493 kts | 166° |
| 2026-05-04 02:30 | 19.30740 | 115.73006 | 32997 ft | 494 kts | 166° |
| 2026-05-04 02:31 | 19.24237 | 115.75326 | 32995 ft | 492 kts | 166° |
| 2026-05-04 02:31 | 19.17737 | 115.77644 | 32996 ft | 493 kts | 166° |
| 2026-05-04 02:32 | 19.11225 | 115.79964 | 32994 ft | 493 kts | 166° |
| 2026-05-04 02:32 | 19.04705 | 115.82284 | 32993 ft | 496 kts | 166° |
| 2026-05-04 02:33 | 18.98190 | 115.84715 | 32987 ft | 499 kts | 160° |
| 2026-05-04 02:33 | 18.91971 | 115.88042 | 33003 ft | 501 kts | 156° |
| 2026-05-04 02:34 | 18.85783 | 115.91446 | 33004 ft | 500 kts | 156° |
| 2026-05-04 02:34 | 18.79598 | 115.94840 | 33007 ft | 500 kts | 156° |
| 2026-05-04 02:35 | 18.73411 | 115.98227 | 33002 ft | 500 kts | 156° |
| 2026-05-04 02:35 | 18.67222 | 116.01612 | 33004 ft | 501 kts | 156° |
| 2026-05-04 02:36 | 18.61036 | 116.04991 | 33003 ft | 501 kts | 156° |
| 2026-05-04 02:36 | 18.54847 | 116.08369 | 33007 ft | 501 kts | 156° |
| 2026-05-04 02:37 | 18.48663 | 116.11741 | 33003 ft | 499 kts | 156° |
| 2026-05-04 02:37 | 18.42474 | 116.15112 | 32997 ft | 501 kts | 156° |
| 2026-05-04 02:38 | 18.36280 | 116.18484 | 33002 ft | 501 kts | 156° |
| 2026-05-04 02:38 | 18.30090 | 116.21850 | 33000 ft | 500 kts | 156° |
| 2026-05-04 02:39 | 18.23925 | 116.25201 | 32996 ft | 497 kts | 156° |
| 2026-05-04 02:39 | 18.17770 | 116.28542 | 32995 ft | 498 kts | 156° |
| 2026-05-04 02:40 | 18.11611 | 116.31883 | 32999 ft | 499 kts | 156° |
| 2026-05-04 02:40 | 18.05448 | 116.35225 | 32995 ft | 497 kts | 156° |
| 2026-05-04 02:41 | 17.99282 | 116.38564 | 32995 ft | 498 kts | 156° |
| 2026-05-04 02:41 | 17.93126 | 116.41896 | 33000 ft | 498 kts | 155° |
| 2026-05-04 02:42 | 17.86978 | 116.45222 | 32996 ft | 497 kts | 155° |
| 2026-05-04 02:42 | 17.80839 | 116.48539 | 32992 ft | 495 kts | 155° |
| 2026-05-04 02:43 | 17.74715 | 116.51846 | 32996 ft | 495 kts | 155° |
| 2026-05-04 02:43 | 17.68586 | 116.55153 | 32989 ft | 494 kts | 155° |
| 2026-05-04 02:44 | 17.62454 | 116.58459 | 32987 ft | 495 kts | 155° |
| 2026-05-04 02:44 | 17.56320 | 116.61763 | 32981 ft | 496 kts | 155° |
| 2026-05-04 02:45 | 17.50179 | 116.65069 | 32982 ft | 495 kts | 155° |
| 2026-05-04 02:45 | 17.44060 | 116.68361 | 32975 ft | 494 kts | 156° |
| 2026-05-04 02:46 | 17.37943 | 116.71648 | 32969 ft | 493 kts | 156° |
| 2026-05-04 02:46 | 17.31826 | 116.74934 | 32973 ft | 494 kts | 155° |
| 2026-05-04 02:47 | 17.25714 | 116.78213 | 32971 ft | 492 kts | 155° |
| 2026-05-04 02:47 | 17.19616 | 116.81484 | 32971 ft | 492 kts | 155° |
| 2026-05-04 02:48 | 17.13515 | 116.84753 | 32969 ft | 492 kts | 155° |
| 2026-05-04 02:48 | 17.07419 | 116.88018 | 32971 ft | 493 kts | 155° |
| 2026-05-04 02:49 | 17.01303 | 116.91290 | 32972 ft | 493 kts | 155° |
| 2026-05-04 02:49 | 16.95215 | 116.94546 | 32970 ft | 490 kts | 155° |
| 2026-05-04 02:50 | 16.89129 | 116.97797 | 32971 ft | 491 kts | 155° |
| 2026-05-04 02:50 | 16.83045 | 117.01045 | 32968 ft | 492 kts | 155° |
| 2026-05-04 02:51 | 16.76949 | 117.04298 | 32965 ft | 491 kts | 155° |
| 2026-05-04 02:51 | 16.70865 | 117.07542 | 32967 ft | 490 kts | 155° |
| 2026-05-04 02:52 | 16.64779 | 117.10784 | 32965 ft | 492 kts | 155° |
| 2026-05-04 02:52 | 16.58690 | 117.14026 | 32965 ft | 491 kts | 155° |
| 2026-05-04 02:53 | 16.52604 | 117.17264 | 32960 ft | 490 kts | 155° |
| 2026-05-04 02:53 | 16.46521 | 117.20497 | 32962 ft | 491 kts | 155° |
| 2026-05-04 02:54 | 16.40435 | 117.23730 | 32959 ft | 491 kts | 155° |
| 2026-05-04 02:54 | 16.34345 | 117.26962 | 32958 ft | 491 kts | 155° |
| 2026-05-04 02:55 | 16.25224 | 117.31799 | 32955 ft | 491 kts | 155° |
| 2026-05-04 02:56 | 16.19137 | 117.35025 | 32952 ft | 491 kts | 155° |
| 2026-05-04 02:56 | 16.13044 | 117.38251 | 32952 ft | 490 kts | 155° |
| 2026-05-04 02:57 | 16.06972 | 117.41464 | 32952 ft | 489 kts | 155° |
| 2026-05-04 02:57 | 16.01899 | 117.44147 | 32952 ft | 490 kts | 155° |
| 2026-05-04 02:58 | 15.95814 | 117.47362 | 32953 ft | 490 kts | 155° |
| 2026-05-04 02:58 | 15.88720 | 117.51109 | 32954 ft | 491 kts | 155° |
| 2026-05-04 02:59 | 15.82620 | 117.54328 | 32952 ft | 492 kts | 155° |
| 2026-05-04 02:59 | 15.76519 | 117.57546 | 32953 ft | 491 kts | 155° |
| 2026-05-04 03:00 | 15.70432 | 117.60753 | 32953 ft | 490 kts | 154° |
| 2026-05-04 03:00 | 15.64350 | 117.63956 | 32953 ft | 491 kts | 155° |
| 2026-05-04 03:01 | 15.58250 | 117.67165 | 32950 ft | 491 kts | 155° |
| 2026-05-04 03:01 | 15.52155 | 117.70371 | 32945 ft | 491 kts | 155° |
| 2026-05-04 03:02 | 15.47061 | 117.73048 | 32951 ft | 492 kts | 155° |
| 2026-05-04 03:02 | 15.40957 | 117.76255 | 32952 ft | 491 kts | 155° |
| 2026-05-04 03:03 | 15.33854 | 117.79984 | 32956 ft | 490 kts | 155° |
| 2026-05-04 03:03 | 15.28772 | 117.82649 | 32957 ft | 491 kts | 155° |
| 2026-05-04 03:04 | 15.21668 | 117.86373 | 32957 ft | 490 kts | 155° |
| 2026-05-04 03:04 | 15.15575 | 117.89565 | 32956 ft | 491 kts | 155° |
| 2026-05-04 03:05 | 15.09479 | 117.92756 | 32953 ft | 491 kts | 155° |
| 2026-05-04 03:05 | 15.03381 | 117.95946 | 32955 ft | 491 kts | 155° |
| 2026-05-04 03:06 | 14.97279 | 117.99136 | 32951 ft | 491 kts | 155° |
| 2026-05-04 03:06 | 14.91181 | 118.02322 | 32951 ft | 490 kts | 155° |
| 2026-05-04 03:07 | 14.85083 | 118.05507 | 32951 ft | 491 kts | 155° |
| 2026-05-04 03:07 | 14.78978 | 118.08692 | 32950 ft | 491 kts | 154° |
| 2026-05-04 03:08 | 14.73887 | 118.11347 | 32946 ft | 491 kts | 154° |
| 2026-05-04 03:08 | 14.66772 | 118.15056 | 32949 ft | 491 kts | 154° |
| 2026-05-04 03:09 | 14.60674 | 118.18232 | 32946 ft | 491 kts | 154° |
| 2026-05-04 03:09 | 14.54571 | 118.21408 | 32949 ft | 491 kts | 154° |
| 2026-05-04 03:10 | 14.48461 | 118.24586 | 32944 ft | 492 kts | 154° |
| 2026-05-04 03:10 | 14.42347 | 118.27765 | 32945 ft | 492 kts | 154° |
| 2026-05-04 03:11 | 14.36230 | 118.30943 | 32945 ft | 492 kts | 154° |
| 2026-05-04 03:11 | 14.30117 | 118.34116 | 32945 ft | 491 kts | 154° |
| 2026-05-04 03:12 | 14.24009 | 118.37286 | 32947 ft | 491 kts | 154° |
| 2026-05-04 03:12 | 14.17907 | 118.40450 | 32947 ft | 491 kts | 154° |
| 2026-05-04 03:13 | 14.11797 | 118.43617 | 32945 ft | 491 kts | 154° |
| 2026-05-04 03:13 | 14.05678 | 118.46786 | 32949 ft | 492 kts | 154° |
| 2026-05-04 03:14 | 14.00563 | 118.49434 | 32952 ft | 493 kts | 154° |
| 2026-05-04 03:14 | 13.94438 | 118.52602 | 32952 ft | 491 kts | 154° |
| 2026-05-04 03:15 | 13.87327 | 118.56279 | 32948 ft | 489 kts | 154° |
| 2026-05-04 03:15 | 13.81240 | 118.59425 | 32947 ft | 489 kts | 154° |
| 2026-05-04 03:16 | 13.75166 | 118.62561 | 32946 ft | 487 kts | 154° |
| 2026-05-04 03:16 | 13.70101 | 118.65176 | 32945 ft | 488 kts | 154° |
| 2026-05-04 03:17 | 13.63014 | 118.68831 | 32946 ft | 488 kts | 154° |
| 2026-05-04 03:17 | 13.57945 | 118.71444 | 32943 ft | 487 kts | 154° |
| 2026-05-04 03:18 | 13.50898 | 118.75075 | 32933 ft | 483 kts | 154° |
| 2026-05-04 03:18 | 13.44879 | 118.78174 | 32933 ft | 483 kts | 154° |
| 2026-05-04 03:19 | 13.39857 | 118.80758 | 32931 ft | 483 kts | 154° |
| 2026-05-04 03:19 | 13.32851 | 118.84361 | 32914 ft | 483 kts | 154° |
| 2026-05-04 03:20 | 13.26841 | 118.87450 | 32914 ft | 483 kts | 154° |
| 2026-05-04 03:20 | 13.20838 | 118.90534 | 32912 ft | 481 kts | 154° |
| 2026-05-04 03:21 | 13.14853 | 118.93607 | 32903 ft | 480 kts | 154° |
| 2026-05-04 03:21 | 13.09858 | 118.96170 | 32913 ft | 481 kts | 154° |
| 2026-05-04 03:22 | 13.02871 | 118.99754 | 32906 ft | 482 kts | 154° |
| 2026-05-04 03:22 | 12.96874 | 119.02828 | 32918 ft | 481 kts | 154° |
| 2026-05-04 03:23 | 12.90881 | 119.05898 | 32927 ft | 482 kts | 154° |
| 2026-05-04 03:23 | 12.84885 | 119.08968 | 32930 ft | 481 kts | 154° |
| 2026-05-04 03:24 | 12.78895 | 119.12034 | 32926 ft | 481 kts | 154° |
| 2026-05-04 03:24 | 12.72913 | 119.15094 | 32922 ft | 479 kts | 154° |
| 2026-05-04 03:25 | 12.66954 | 119.18140 | 32921 ft | 478 kts | 154° |
| 2026-05-04 03:25 | 12.60980 | 119.21193 | 32923 ft | 479 kts | 154° |
| 2026-05-04 03:26 | 12.55017 | 119.24238 | 32919 ft | 478 kts | 154° |
| 2026-05-04 03:26 | 12.49063 | 119.27277 | 32917 ft | 478 kts | 154° |
| 2026-05-04 03:27 | 12.43115 | 119.30312 | 32918 ft | 477 kts | 154° |
| 2026-05-04 03:27 | 12.37168 | 119.33344 | 32919 ft | 477 kts | 154° |
| 2026-05-04 03:28 | 12.32210 | 119.35871 | 32921 ft | 476 kts | 154° |
| 2026-05-04 03:28 | 12.25294 | 119.39394 | 32925 ft | 476 kts | 154° |
| 2026-05-04 03:29 | 12.19359 | 119.42416 | 32926 ft | 476 kts | 154° |
| 2026-05-04 03:29 | 12.13437 | 119.45429 | 32928 ft | 474 kts | 154° |
| 2026-05-04 03:30 | 12.07525 | 119.48436 | 32928 ft | 474 kts | 154° |
| 2026-05-04 03:30 | 12.01613 | 119.51442 | 32928 ft | 473 kts | 154° |
| 2026-05-04 03:31 | 11.95707 | 119.54443 | 32928 ft | 474 kts | 153° |
| 2026-05-04 03:31 | 11.89792 | 119.57447 | 32927 ft | 474 kts | 153° |
| 2026-05-04 03:32 | 11.83880 | 119.60448 | 32930 ft | 474 kts | 153° |
| 2026-05-04 03:32 | 11.77955 | 119.63454 | 32930 ft | 475 kts | 153° |
| 2026-05-04 03:33 | 11.72030 | 119.66459 | 32931 ft | 475 kts | 154° |
| 2026-05-04 03:33 | 11.66118 | 119.69461 | 32931 ft | 475 kts | 153° |
| 2026-05-04 03:34 | 11.61218 | 119.71954 | 32930 ft | 474 kts | 153° |
| 2026-05-04 03:34 | 11.55313 | 119.74956 | 32925 ft | 474 kts | 153° |
| 2026-05-04 03:35 | 11.48384 | 119.78476 | 32917 ft | 474 kts | 153° |
| 2026-05-04 03:35 | 11.42480 | 119.81474 | 32913 ft | 473 kts | 153° |
| 2026-05-04 03:36 | 11.37598 | 119.83952 | 32910 ft | 472 kts | 153° |
| 2026-05-04 03:36 | 11.30688 | 119.87458 | 32909 ft | 472 kts | 153° |
| 2026-05-04 03:37 | 11.24794 | 119.90447 | 32908 ft | 472 kts | 153° |
| 2026-05-04 03:37 | 11.18896 | 119.93436 | 32908 ft | 473 kts | 153° |
| 2026-05-04 03:38 | 11.14011 | 119.95911 | 32908 ft | 475 kts | 153° |
| 2026-05-04 03:38 | 11.07070 | 119.99427 | 32905 ft | 474 kts | 153° |
| 2026-05-04 03:39 | 11.01160 | 120.02417 | 32902 ft | 473 kts | 153° |
| 2026-05-04 03:39 | 10.95267 | 120.05393 | 32904 ft | 471 kts | 153° |
| 2026-05-04 03:40 | 10.89370 | 120.08370 | 32906 ft | 473 kts | 153° |
| 2026-05-04 03:40 | 10.83477 | 120.11343 | 32909 ft | 472 kts | 153° |
| 2026-05-04 03:41 | 10.77580 | 120.14318 | 32910 ft | 473 kts | 153° |
| 2026-05-04 03:41 | 10.72691 | 120.16782 | 32909 ft | 472 kts | 153° |
| 2026-05-04 03:42 | 10.65771 | 120.20270 | 32909 ft | 473 kts | 153° |
| 2026-05-04 03:42 | 10.60881 | 120.22733 | 32909 ft | 473 kts | 153° |
| 2026-05-04 03:43 | 10.53968 | 120.26214 | 32909 ft | 472 kts | 153° |
| 2026-05-04 03:43 | 10.49091 | 120.28669 | 32909 ft | 472 kts | 153° |
| 2026-05-04 03:44 | 10.43188 | 120.31639 | 32907 ft | 473 kts | 153° |
| 2026-05-04 03:44 | 10.36270 | 120.35117 | 32907 ft | 473 kts | 153° |
| 2026-05-04 03:45 | 10.30375 | 120.38081 | 32907 ft | 472 kts | 153° |
| 2026-05-04 03:45 | 10.25502 | 120.40529 | 32906 ft | 472 kts | 153° |
| 2026-05-04 03:46 | 10.19595 | 120.43491 | 32907 ft | 474 kts | 154° |
| 2026-05-04 03:46 | 10.12667 | 120.46957 | 32908 ft | 472 kts | 154° |
| 2026-05-04 03:47 | 10.06777 | 120.49903 | 32905 ft | 471 kts | 154° |
| 2026-05-04 03:47 | 10.00879 | 120.52852 | 32911 ft | 471 kts | 154° |
| 2026-05-04 03:48 | 9.94993 | 120.55793 | 32909 ft | 473 kts | 154° |
| 2026-05-04 03:48 | 9.90118 | 120.58229 | 32909 ft | 470 kts | 154° |
| 2026-05-04 03:49 | 9.84237 | 120.61166 | 32917 ft | 471 kts | 154° |
| 2026-05-04 03:49 | 9.77353 | 120.64603 | 32907 ft | 473 kts | 154° |
| 2026-05-04 03:50 | 9.72417 | 120.67065 | 32900 ft | 473 kts | 154° |
| 2026-05-04 03:50 | 9.65531 | 120.70499 | 32904 ft | 473 kts | 154° |
| 2026-05-04 03:51 | 9.59606 | 120.73452 | 32905 ft | 474 kts | 154° |
| 2026-05-04 03:51 | 9.53680 | 120.76405 | 32904 ft | 473 kts | 154° |
| 2026-05-04 03:52 | 9.47748 | 120.79359 | 32899 ft | 474 kts | 154° |
| 2026-05-04 03:52 | 9.41818 | 120.82311 | 32898 ft | 474 kts | 154° |
| 2026-05-04 03:53 | 9.35880 | 120.85266 | 32898 ft | 476 kts | 154° |
| 2026-05-04 03:53 | 9.29935 | 120.88224 | 32896 ft | 475 kts | 154° |
| 2026-05-04 03:54 | 9.24979 | 120.90688 | 32895 ft | 475 kts | 154° |
| 2026-05-04 03:54 | 9.18057 | 120.94129 | 32894 ft | 475 kts | 154° |
| 2026-05-04 03:55 | 9.12104 | 120.97087 | 32891 ft | 477 kts | 154° |
| 2026-05-04 03:55 | 9.06140 | 121.00050 | 32889 ft | 477 kts | 154° |
| 2026-05-04 03:56 | 9.00170 | 121.03014 | 32888 ft | 478 kts | 154° |
| 2026-05-04 03:56 | 8.94200 | 121.05978 | 32897 ft | 477 kts | 154° |
| 2026-05-04 03:57 | 8.89224 | 121.08446 | 32905 ft | 477 kts | 154° |
| 2026-05-04 03:57 | 8.83254 | 121.11407 | 32908 ft | 477 kts | 154° |
| 2026-05-04 03:58 | 8.74290 | 121.15852 | 32908 ft | 476 kts | 154° |
| 2026-05-04 03:58 | 8.67347 | 121.19292 | 32908 ft | 476 kts | 154° |
| 2026-05-04 03:59 | 8.61400 | 121.22238 | 32904 ft | 475 kts | 154° |
| 2026-05-04 03:59 | 8.55446 | 121.25187 | 32907 ft | 477 kts | 154° |
| 2026-05-04 04:00 | 8.49488 | 121.28136 | 32908 ft | 476 kts | 154° |
| 2026-05-04 04:00 | 8.44517 | 121.30595 | 32908 ft | 475 kts | 154° |
| 2026-05-04 04:01 | 8.37578 | 121.34029 | 32909 ft | 477 kts | 154° |
| 2026-05-04 04:01 | 8.31625 | 121.36972 | 32908 ft | 475 kts | 153° |
| 2026-05-04 04:02 | 8.25680 | 121.39911 | 32906 ft | 475 kts | 153° |
| 2026-05-04 04:02 | 8.20723 | 121.42360 | 32902 ft | 475 kts | 154° |
| 2026-05-04 04:03 | 8.13806 | 121.45778 | 32896 ft | 475 kts | 154° |
| 2026-05-04 04:03 | 8.07862 | 121.48713 | 32890 ft | 476 kts | 153° |
| 2026-05-04 04:04 | 8.01908 | 121.51653 | 32886 ft | 476 kts | 153° |
| 2026-05-04 04:04 | 7.95957 | 121.54589 | 32887 ft | 475 kts | 153° |
| 2026-05-04 04:05 | 7.90005 | 121.57526 | 32888 ft | 476 kts | 153° |
| 2026-05-04 04:05 | 7.85036 | 121.59976 | 32893 ft | 477 kts | 153° |
| 2026-05-04 04:06 | 7.79071 | 121.62917 | 32890 ft | 476 kts | 153° |
| 2026-05-04 04:06 | 7.72133 | 121.66337 | 32893 ft | 476 kts | 153° |
| 2026-05-04 04:07 | 7.66172 | 121.69274 | 32894 ft | 477 kts | 153° |
| 2026-05-04 04:07 | 7.60204 | 121.72214 | 32896 ft | 477 kts | 153° |
| 2026-05-04 04:08 | 7.55255 | 121.74651 | 32897 ft | 478 kts | 153° |
| 2026-05-04 04:08 | 7.49285 | 121.77590 | 32896 ft | 477 kts | 153° |
| 2026-05-04 04:09 | 7.42289 | 121.81033 | 32899 ft | 477 kts | 153° |
| 2026-05-04 04:09 | 7.36321 | 121.83969 | 32907 ft | 477 kts | 153° |
| 2026-05-04 04:10 | 7.31368 | 121.86404 | 32912 ft | 478 kts | 153° |
| 2026-05-04 04:10 | 7.25344 | 121.89369 | 33266 ft | 485 kts | 153° |
| 2026-05-04 04:11 | 7.21319 | 121.91350 | 34347 ft | 477 kts | 153° |
| 2026-05-04 04:11 | 7.19351 | 121.92319 | 34810 ft | 475 kts | 153° |
| 2026-05-04 04:11 | 7.15362 | 121.94282 | 34937 ft | 476 kts | 153° |
| 2026-05-04 04:11 | 7.13392 | 121.95251 | 34946 ft | 474 kts | 153° |
| 2026-05-04 04:12 | 7.06488 | 121.98647 | 34960 ft | 473 kts | 153° |
| 2026-05-04 04:12 | 7.00570 | 122.01557 | 34965 ft | 472 kts | 153° |
| 2026-05-04 04:13 | 6.94657 | 122.04464 | 34958 ft | 473 kts | 153° |
| 2026-05-04 04:13 | 6.88823 | 122.07516 | 34945 ft | 472 kts | 149° |
| 2026-05-04 04:14 | 6.83127 | 122.10822 | 34926 ft | 472 kts | 149° |
| 2026-05-04 04:14 | 6.77421 | 122.14113 | 34915 ft | 472 kts | 149° |
| 2026-05-04 04:15 | 6.72650 | 122.16853 | 34906 ft | 472 kts | 149° |
| 2026-05-04 04:15 | 6.66941 | 122.20125 | 34911 ft | 472 kts | 149° |
| 2026-05-04 04:16 | 6.60287 | 122.23932 | 34905 ft | 472 kts | 149° |
| 2026-05-04 04:16 | 6.55528 | 122.26653 | 34891 ft | 471 kts | 149° |
| 2026-05-04 04:17 | 6.49827 | 122.29909 | 34890 ft | 471 kts | 149° |
| 2026-05-04 04:17 | 6.44123 | 122.33166 | 34884 ft | 471 kts | 149° |
| 2026-05-04 04:18 | 6.37474 | 122.36961 | 34881 ft | 471 kts | 149° |
| 2026-05-04 04:18 | 6.31771 | 122.40214 | 34882 ft | 471 kts | 149° |
| 2026-05-04 04:19 | 6.26071 | 122.43465 | 34886 ft | 471 kts | 149° |
| 2026-05-04 04:19 | 6.20367 | 122.46718 | 34891 ft | 471 kts | 149° |
| 2026-05-04 04:20 | 6.14658 | 122.49972 | 34889 ft | 471 kts | 149° |
| 2026-05-04 04:20 | 6.08957 | 122.53221 | 34888 ft | 470 kts | 149° |
| 2026-05-04 04:21 | 6.03260 | 122.56468 | 34884 ft | 470 kts | 150° |
| 2026-05-04 04:21 | 5.97575 | 122.59706 | 34883 ft | 469 kts | 150° |
| 2026-05-04 04:22 | 5.91903 | 122.62937 | 34886 ft | 469 kts | 150° |
| 2026-05-04 04:22 | 5.86219 | 122.66174 | 34889 ft | 469 kts | 150° |
| 2026-05-04 04:23 | 5.80538 | 122.69407 | 34890 ft | 469 kts | 150° |
| 2026-05-04 04:23 | 5.74858 | 122.72639 | 34890 ft | 469 kts | 150° |
| 2026-05-04 04:24 | 5.69176 | 122.75873 | 34890 ft | 469 kts | 150° |
| 2026-05-04 04:24 | 5.63500 | 122.79102 | 34889 ft | 467 kts | 150° |
| 2026-05-04 04:25 | 5.57832 | 122.82325 | 34889 ft | 468 kts | 150° |
| 2026-05-04 04:25 | 5.52152 | 122.85555 | 34889 ft | 469 kts | 150° |
| 2026-05-04 04:26 | 5.46474 | 122.88783 | 34889 ft | 468 kts | 149° |
| 2026-05-04 04:26 | 5.41736 | 122.91476 | 34889 ft | 469 kts | 149° |
| 2026-05-04 04:27 | 5.36060 | 122.94701 | 34889 ft | 468 kts | 149° |
| 2026-05-04 04:27 | 5.30385 | 122.97925 | 34888 ft | 467 kts | 149° |
| 2026-05-04 04:28 | 5.23779 | 123.01677 | 34889 ft | 469 kts | 149° |
| 2026-05-04 04:28 | 5.19034 | 123.04372 | 34888 ft | 469 kts | 149° |
| 2026-05-04 04:29 | 5.12410 | 123.08133 | 34883 ft | 469 kts | 149° |
| 2026-05-04 04:29 | 5.07674 | 123.10821 | 34877 ft | 468 kts | 149° |
| 2026-05-04 04:30 | 5.01062 | 123.14573 | 34868 ft | 469 kts | 149° |
| 2026-05-04 04:30 | 4.96321 | 123.17263 | 34867 ft | 469 kts | 149° |
| 2026-05-04 04:31 | 4.89699 | 123.21020 | 34866 ft | 469 kts | 149° |
| 2026-05-04 04:31 | 4.84021 | 123.24241 | 34868 ft | 468 kts | 149° |
| 2026-05-04 04:32 | 4.78340 | 123.27462 | 34868 ft | 469 kts | 149° |
| 2026-05-04 04:32 | 4.72659 | 123.30682 | 34867 ft | 468 kts | 149° |
| 2026-05-04 04:33 | 4.66985 | 123.33899 | 34867 ft | 468 kts | 149° |
| 2026-05-04 04:33 | 4.62246 | 123.36584 | 34867 ft | 469 kts | 149° |
| 2026-05-04 04:34 | 4.55624 | 123.40337 | 34867 ft | 468 kts | 149° |
| 2026-05-04 04:34 | 4.49983 | 123.43533 | 34866 ft | 468 kts | 149° |
| 2026-05-04 04:35 | 4.45247 | 123.46216 | 34867 ft | 467 kts | 149° |
| 2026-05-04 04:35 | 4.38634 | 123.49960 | 34865 ft | 467 kts | 149° |
| 2026-05-04 04:36 | 4.33901 | 123.52640 | 34866 ft | 467 kts | 149° |
| 2026-05-04 04:36 | 4.27289 | 123.56384 | 34865 ft | 468 kts | 149° |
| 2026-05-04 04:37 | 4.16875 | 123.62278 | 34865 ft | 467 kts | 150° |
| 2026-05-04 04:38 | 4.11204 | 123.65488 | 34866 ft | 467 kts | 150° |
| 2026-05-04 04:38 | 4.04607 | 123.69219 | 34868 ft | 466 kts | 150° |
| 2026-05-04 04:39 | 3.99886 | 123.71890 | 34868 ft | 466 kts | 150° |
| 2026-05-04 04:39 | 3.93377 | 123.75747 | 34868 ft | 466 kts | 148° |
| 2026-05-04 04:40 | 3.87796 | 123.79084 | 34870 ft | 467 kts | 148° |
| 2026-05-04 04:40 | 3.83136 | 123.81864 | 34870 ft | 467 kts | 148° |
| 2026-05-04 04:41 | 3.76625 | 123.85746 | 34871 ft | 466 kts | 148° |
| 2026-05-04 04:41 | 3.71962 | 123.88525 | 34876 ft | 466 kts | 148° |
| 2026-05-04 04:42 | 3.66378 | 123.91850 | 34877 ft | 467 kts | 148° |
| 2026-05-04 04:42 | 3.59869 | 123.95725 | 34885 ft | 466 kts | 148° |
| 2026-05-04 04:43 | 3.55209 | 123.98498 | 34878 ft | 466 kts | 148° |
| 2026-05-04 04:43 | 3.49626 | 124.01822 | 34872 ft | 467 kts | 148° |
| 2026-05-04 04:44 | 3.44026 | 124.05154 | 34869 ft | 467 kts | 148° |
| 2026-05-04 04:44 | 3.38433 | 124.08482 | 34868 ft | 466 kts | 148° |
| 2026-05-04 04:45 | 3.32849 | 124.11803 | 34868 ft | 466 kts | 148° |
| 2026-05-04 04:47 | 3.12347 | 124.23996 | 34867 ft | 468 kts | 148° |
| 2026-05-04 04:47 | 3.06747 | 124.27325 | 34866 ft | 467 kts | 148° |
| 2026-05-04 04:48 | 3.02077 | 124.30101 | 34866 ft | 468 kts | 148° |
| 2026-05-04 04:49 | 2.88044 | 124.38442 | 34868 ft | 468 kts | 148° |
| 2026-05-04 04:49 | 2.81508 | 124.42325 | 34867 ft | 468 kts | 148° |
| 2026-05-04 04:50 | 2.76870 | 124.45081 | 34866 ft | 467 kts | 148° |
| 2026-05-04 04:50 | 2.71265 | 124.48410 | 34866 ft | 468 kts | 148° |
| 2026-05-04 04:51 | 2.65657 | 124.51742 | 34867 ft | 468 kts | 148° |
| 2026-05-04 04:51 | 2.60053 | 124.55070 | 34867 ft | 467 kts | 148° |
| 2026-05-04 04:52 | 2.54446 | 124.58400 | 34866 ft | 468 kts | 148° |
| 2026-05-04 04:52 | 2.47906 | 124.62283 | 34867 ft | 468 kts | 148° |
| 2026-05-04 04:53 | 2.43228 | 124.65061 | 34864 ft | 468 kts | 148° |
| 2026-05-04 04:53 | 2.37620 | 124.68391 | 34866 ft | 469 kts | 148° |
| 2026-05-04 04:54 | 2.32007 | 124.71722 | 34864 ft | 468 kts | 148° |
| 2026-05-04 04:54 | 2.25473 | 124.75601 | 34854 ft | 469 kts | 148° |
| 2026-05-04 04:55 | 2.20785 | 124.78383 | 34854 ft | 468 kts | 148° |
| 2026-05-04 04:55 | 2.15178 | 124.81712 | 34848 ft | 468 kts | 148° |
| 2026-05-04 04:56 | 2.09564 | 124.85043 | 34848 ft | 469 kts | 148° |
| 2026-05-04 04:56 | 2.03951 | 124.88374 | 34846 ft | 468 kts | 148° |
| 2026-05-04 04:57 | 1.98317 | 124.91667 | 34845 ft | 468 kts | 148° |
| 2026-05-04 04:57 | 1.92679 | 124.94957 | 34849 ft | 470 kts | 148° |
| 2026-05-04 04:58 | 1.87034 | 124.98252 | 34850 ft | 469 kts | 148° |
| 2026-05-04 04:58 | 1.81391 | 125.01547 | 34849 ft | 469 kts | 148° |
| 2026-05-04 04:59 | 1.75749 | 125.04842 | 34851 ft | 469 kts | 148° |
| 2026-05-04 04:59 | 1.70112 | 125.08133 | 34854 ft | 468 kts | 148° |
| 2026-05-04 05:00 | 1.64479 | 125.11423 | 34860 ft | 469 kts | 148° |
| 2026-05-04 05:01 | 1.56036 | 125.16351 | 34863 ft | 469 kts | 149° |
| 2026-05-04 05:01 | 1.50398 | 125.19643 | 34858 ft | 468 kts | 148° |
| 2026-05-04 05:02 | 1.44772 | 125.22928 | 34853 ft | 467 kts | 148° |
| 2026-05-04 05:02 | 1.39151 | 125.26208 | 34852 ft | 467 kts | 148° |
| 2026-05-04 05:03 | 1.33529 | 125.29491 | 34854 ft | 467 kts | 149° |
| 2026-05-04 05:04 | 1.21356 | 125.36596 | 34859 ft | 467 kts | 149° |
| 2026-05-04 05:04 | 1.16676 | 125.39327 | 34862 ft | 466 kts | 149° |
| 2026-05-04 05:06 | 0.94256 | 125.52411 | 34867 ft | 466 kts | 149° |
| 2026-05-04 05:07 | 0.88641 | 125.55687 | 34867 ft | 467 kts | 149° |
| 2026-05-04 05:07 | 0.82111 | 125.59497 | 34862 ft | 465 kts | 149° |
| 2026-05-04 05:09 | 0.56851 | 125.74235 | 34849 ft | 466 kts | 149° |
| 2026-05-04 05:10 | 0.51247 | 125.77504 | 34850 ft | 466 kts | 149° |
| 2026-05-04 05:10 | 0.46608 | 125.80211 | 34849 ft | 467 kts | 149° |
| 2026-05-04 05:11 | 0.40017 | 125.84055 | 34849 ft | 467 kts | 149° |
| 2026-05-04 05:11 | 0.34398 | 125.87334 | 34848 ft | 467 kts | 149° |
| 2026-05-04 05:12 | 0.29747 | 125.90047 | 34849 ft | 468 kts | 149° |
| 2026-05-04 05:12 | 0.24126 | 125.93326 | 34849 ft | 468 kts | 149° |
| 2026-05-04 05:13 | 0.18493 | 125.96612 | 34846 ft | 468 kts | 149° |
| 2026-05-04 05:13 | 0.11894 | 126.00461 | 34848 ft | 468 kts | 149° |
| 2026-05-04 05:14 | 0.07235 | 126.03179 | 34847 ft | 468 kts | 149° |
| 2026-05-04 05:14 | 0.01596 | 126.06468 | 34845 ft | 469 kts | 149° |
| 2026-05-04 05:15 | -0.04036 | 126.09753 | 34849 ft | 468 kts | 149° |
| 2026-05-04 05:15 | -0.09672 | 126.13042 | 34848 ft | 469 kts | 149° |
| 2026-05-04 05:16 | -0.15314 | 126.16333 | 34848 ft | 469 kts | 149° |
| 2026-05-04 05:16 | -0.20952 | 126.19622 | 34849 ft | 470 kts | 149° |
| 2026-05-04 05:17 | -0.26585 | 126.22907 | 34845 ft | 468 kts | 149° |
| 2026-05-04 05:17 | -0.32222 | 126.26196 | 34848 ft | 468 kts | 149° |
| 2026-05-04 05:18 | -0.37856 | 126.29482 | 34849 ft | 467 kts | 149° |
| 2026-05-04 05:18 | -0.44408 | 126.33305 | 34846 ft | 466 kts | 149° |
| 2026-05-04 05:19 | -0.49095 | 126.36039 | 34845 ft | 467 kts | 149° |
| 2026-05-04 05:19 | -0.54715 | 126.39317 | 34847 ft | 467 kts | 149° |
| 2026-05-04 05:20 | -0.61269 | 126.43141 | 34845 ft | 468 kts | 149° |
| 2026-05-04 05:20 | -0.65957 | 126.45876 | 34840 ft | 467 kts | 149° |
| 2026-05-04 05:21 | -0.71582 | 126.49159 | 34840 ft | 467 kts | 149° |
| 2026-05-04 05:21 | -0.77198 | 126.52434 | 34839 ft | 467 kts | 149° |
| 2026-05-04 05:22 | -0.82809 | 126.55709 | 34836 ft | 467 kts | 149° |
| 2026-05-04 05:22 | -0.89356 | 126.59528 | 34834 ft | 467 kts | 149° |
| 2026-05-04 05:23 | -0.94034 | 126.62259 | 34832 ft | 467 kts | 149° |
| 2026-05-04 05:23 | -0.99647 | 126.65534 | 34832 ft | 467 kts | 149° |
| 2026-05-04 05:24 | -1.05276 | 126.68819 | 34832 ft | 467 kts | 149° |
| 2026-05-04 05:24 | -1.10859 | 126.72076 | 34832 ft | 466 kts | 149° |
| 2026-05-04 05:25 | -1.16471 | 126.75352 | 34837 ft | 467 kts | 149° |
| 2026-05-04 05:25 | -1.22088 | 126.78630 | 34842 ft | 465 kts | 149° |
| 2026-05-04 05:26 | -1.27690 | 126.81900 | 34847 ft | 467 kts | 149° |
| 2026-05-04 05:26 | -1.33300 | 126.85175 | 34848 ft | 467 kts | 149° |
| 2026-05-04 05:28 | -1.55724 | 126.98264 | 34845 ft | 465 kts | 149° |
| 2026-05-04 05:29 | -1.61349 | 127.01549 | 34847 ft | 467 kts | 149° |
| 2026-05-04 05:29 | -1.66946 | 127.04816 | 34844 ft | 465 kts | 149° |
| 2026-05-04 05:31 | -1.89374 | 127.17915 | 34842 ft | 464 kts | 149° |
| 2026-05-04 05:32 | -1.94968 | 127.21182 | 34839 ft | 466 kts | 149° |
| 2026-05-04 05:33 | -2.03392 | 127.26103 | 34826 ft | 466 kts | 149° |
| 2026-05-04 05:33 | -2.08992 | 127.29375 | 34823 ft | 466 kts | 149° |
| 2026-05-04 05:34 | -2.14569 | 127.32633 | 34827 ft | 467 kts | 149° |
| 2026-05-04 05:34 | -2.21153 | 127.36480 | 34826 ft | 467 kts | 149° |
| 2026-05-04 05:35 | -2.26761 | 127.39758 | 34826 ft | 467 kts | 149° |
| 2026-05-04 05:35 | -2.31448 | 127.42497 | 34826 ft | 467 kts | 149° |
| 2026-05-04 05:36 | -2.37061 | 127.45778 | 34827 ft | 468 kts | 149° |
| 2026-05-04 05:36 | -2.42680 | 127.49062 | 34827 ft | 468 kts | 149° |
| 2026-05-04 05:37 | -2.48263 | 127.52325 | 34825 ft | 468 kts | 149° |
| 2026-05-04 05:37 | -2.53882 | 127.55611 | 34826 ft | 467 kts | 149° |
| 2026-05-04 05:38 | -2.62346 | 127.60560 | 34824 ft | 468 kts | 149° |
| 2026-05-04 05:38 | -2.67982 | 127.63856 | 34824 ft | 469 kts | 149° |
| 2026-05-04 05:39 | -2.76410 | 127.68785 | 34827 ft | 468 kts | 149° |
| 2026-05-04 05:40 | -2.84877 | 127.73739 | 34827 ft | 469 kts | 149° |
| 2026-05-04 05:40 | -2.90522 | 127.77041 | 34826 ft | 470 kts | 149° |
| 2026-05-04 05:41 | -2.97107 | 127.80894 | 34826 ft | 470 kts | 149° |
| 2026-05-04 05:41 | -3.01816 | 127.83650 | 34826 ft | 470 kts | 149° |
| 2026-05-04 05:42 | -3.07454 | 127.86950 | 34835 ft | 469 kts | 149° |
| 2026-05-04 05:42 | -3.13095 | 127.90252 | 34850 ft | 470 kts | 149° |
| 2026-05-04 05:43 | -3.18737 | 127.93555 | 34867 ft | 470 kts | 149° |
| 2026-05-04 05:45 | -3.41373 | 128.06810 | 34854 ft | 469 kts | 149° |
| 2026-05-04 05:47 | -3.63898 | 128.20119 | 34839 ft | 471 kts | 144° |
| 2026-05-04 05:47 | -3.69248 | 128.23917 | 34836 ft | 471 kts | 144° |
| 2026-05-04 05:48 | -3.74611 | 128.27710 | 34832 ft | 472 kts | 144° |
| 2026-05-04 05:48 | -3.79972 | 128.31480 | 34827 ft | 470 kts | 144° |
| 2026-05-04 05:49 | -3.86270 | 128.35895 | 34826 ft | 471 kts | 144° |
| 2026-05-04 05:49 | -3.90716 | 128.39008 | 34827 ft | 471 kts | 144° |
| 2026-05-04 05:51 | -4.13226 | 128.54752 | 34826 ft | 473 kts | 144° |
| 2026-05-04 05:52 | -4.17698 | 128.57880 | 34824 ft | 473 kts | 144° |
| 2026-05-04 05:52 | -4.23105 | 128.61662 | 34824 ft | 473 kts | 144° |
| 2026-05-04 05:54 | -4.44771 | 128.76827 | 34826 ft | 476 kts | 144° |
| 2026-05-04 05:55 | -4.50202 | 128.80629 | 34826 ft | 476 kts | 144° |
| 2026-05-04 05:55 | -4.55627 | 128.84428 | 34822 ft | 475 kts | 144° |
| 2026-05-04 05:56 | -4.61048 | 128.88226 | 34820 ft | 475 kts | 144° |
| 2026-05-04 05:56 | -4.66478 | 128.92030 | 34821 ft | 476 kts | 144° |
| 2026-05-04 05:57 | -4.71908 | 128.95834 | 34821 ft | 476 kts | 144° |
| 2026-05-04 05:57 | -4.78284 | 129.00304 | 34821 ft | 477 kts | 144° |
| 2026-05-04 05:58 | -4.82789 | 129.03461 | 34822 ft | 477 kts | 144° |
| 2026-05-04 05:58 | -4.88230 | 129.07277 | 34823 ft | 477 kts | 144° |
| 2026-05-04 05:59 | -4.93673 | 129.11093 | 34822 ft | 477 kts | 144° |
| 2026-05-04 05:59 | -4.99108 | 129.14905 | 34825 ft | 476 kts | 144° |
| 2026-05-04 06:00 | -5.04545 | 129.18721 | 34818 ft | 477 kts | 144° |
| 2026-05-04 06:00 | -5.09989 | 129.22540 | 34813 ft | 478 kts | 144° |
| 2026-05-04 06:01 | -5.15438 | 129.26364 | 34805 ft | 478 kts | 144° |
| 2026-05-04 06:03 | -5.37238 | 129.41673 | 34832 ft | 478 kts | 144° |
| 2026-05-04 06:05 | -5.61770 | 129.58917 | 34830 ft | 478 kts | 144° |
| 2026-05-04 06:06 | -5.67213 | 129.62746 | 34831 ft | 477 kts | 144° |
| 2026-05-04 06:06 | -5.72649 | 129.66569 | 34832 ft | 476 kts | 144° |
| 2026-05-04 06:07 | -5.78077 | 129.70389 | 34833 ft | 476 kts | 144° |
| 2026-05-04 06:07 | -5.83501 | 129.74206 | 34825 ft | 476 kts | 144° |
| 2026-05-04 06:08 | -5.88925 | 129.78026 | 34825 ft | 476 kts | 144° |
| 2026-05-04 06:08 | -5.94351 | 129.81847 | 34826 ft | 476 kts | 144° |
| 2026-05-04 06:09 | -5.99764 | 129.85658 | 34831 ft | 475 kts | 144° |
| 2026-05-04 06:11 | -6.21477 | 130.00963 | 34825 ft | 478 kts | 144° |
| 2026-05-04 06:13 | -6.43139 | 130.16244 | 34827 ft | 475 kts | 144° |
| 2026-05-04 06:14 | -6.62229 | 130.29727 | 34830 ft | 481 kts | 145° |
| 2026-05-04 06:15 | -6.67709 | 130.33600 | 34827 ft | 481 kts | 145° |
| 2026-05-04 06:15 | -6.73178 | 130.37466 | 34826 ft | 480 kts | 145° |
| 2026-05-04 06:16 | -6.78635 | 130.41324 | 34829 ft | 479 kts | 145° |
| 2026-05-04 06:16 | -6.84100 | 130.45189 | 34838 ft | 480 kts | 145° |
| 2026-05-04 06:17 | -6.89572 | 130.49060 | 34846 ft | 481 kts | 145° |
| 2026-05-04 06:17 | -6.95045 | 130.52933 | 34846 ft | 481 kts | 145° |
| 2026-05-04 06:18 | -7.00533 | 130.56818 | 34844 ft | 482 kts | 145° |
| 2026-05-04 06:20 | -7.22481 | 130.72366 | 34827 ft | 481 kts | 144° |
| 2026-05-04 06:21 | -7.36236 | 130.82120 | 34836 ft | 484 kts | 144° |
| 2026-05-04 06:22 | -7.41746 | 130.86029 | 34832 ft | 485 kts | 144° |
| 2026-05-04 06:25 | -7.80287 | 131.13406 | 34845 ft | 486 kts | 145° |
| 2026-05-04 06:26 | -7.85833 | 131.17352 | 34846 ft | 486 kts | 145° |
| 2026-05-04 06:26 | -7.91354 | 131.21280 | 34846 ft | 485 kts | 145° |
| 2026-05-04 06:27 | -8.05138 | 131.31094 | 34849 ft | 485 kts | 145° |
| 2026-05-04 06:28 | -8.10954 | 131.34558 | 34850 ft | 485 kts | 153° |
| 2026-05-04 06:28 | -8.16978 | 131.37679 | 34847 ft | 485 kts | 153° |
| 2026-05-04 06:29 | -8.22994 | 131.40796 | 34848 ft | 485 kts | 153° |
| 2026-05-04 06:29 | -8.29008 | 131.43918 | 34852 ft | 486 kts | 153° |
| 2026-05-04 06:30 | -8.35002 | 131.47031 | 34857 ft | 485 kts | 153° |
| 2026-05-04 06:30 | -8.41026 | 131.50162 | 34858 ft | 486 kts | 153° |
| 2026-05-04 06:31 | -8.47066 | 131.53302 | 34857 ft | 486 kts | 153° |
| 2026-05-04 06:31 | -8.53101 | 131.56442 | 34858 ft | 486 kts | 153° |
| 2026-05-04 06:33 | -8.77202 | 131.68991 | 34862 ft | 486 kts | 153° |
| 2026-05-04 06:34 | -8.83228 | 131.72133 | 34863 ft | 487 kts | 153° |
| 2026-05-04 06:34 | -8.89263 | 131.75279 | 34865 ft | 487 kts | 153° |
| 2026-05-04 06:36 | -9.13423 | 131.87888 | 34870 ft | 489 kts | 153° |
| 2026-05-04 06:37 | -9.19478 | 131.91051 | 34865 ft | 489 kts | 153° |
| 2026-05-04 06:37 | -9.25545 | 131.94222 | 34857 ft | 490 kts | 153° |
| 2026-05-04 06:38 | -9.31613 | 131.97394 | 34853 ft | 490 kts | 153° |
| 2026-05-04 06:40 | -9.55843 | 132.10074 | 34850 ft | 491 kts | 154° |
| 2026-05-04 06:40 | -9.61919 | 132.13257 | 34859 ft | 490 kts | 154° |
| 2026-05-04 06:41 | -9.68000 | 132.16443 | 34863 ft | 491 kts | 154° |
| 2026-05-04 06:41 | -9.74076 | 132.19627 | 34864 ft | 492 kts | 154° |
| 2026-05-04 06:42 | -9.80165 | 132.22821 | 34868 ft | 492 kts | 154° |
| 2026-05-04 06:44 | -10.04518 | 132.35608 | 34870 ft | 491 kts | 154° |
| 2026-05-04 06:44 | -10.10599 | 132.38803 | 34871 ft | 492 kts | 154° |
| 2026-05-04 06:45 | -10.16685 | 132.42003 | 34870 ft | 491 kts | 154° |
| 2026-05-04 06:45 | -10.22761 | 132.45200 | 34870 ft | 492 kts | 154° |
| 2026-05-04 06:46 | -10.28848 | 132.48402 | 34871 ft | 492 kts | 154° |
| 2026-05-04 06:46 | -10.34934 | 132.51607 | 34871 ft | 494 kts | 154° |
| 2026-05-04 06:48 | -10.59283 | 132.64441 | 34872 ft | 493 kts | 154° |
| 2026-05-04 06:50 | -10.83704 | 132.77336 | 34868 ft | 494 kts | 154° |
| 2026-05-04 06:51 | -10.89805 | 132.80562 | 34868 ft | 493 kts | 154° |
| 2026-05-04 06:51 | -10.95871 | 132.83769 | 34869 ft | 494 kts | 154° |
| 2026-05-04 06:52 | -11.01971 | 132.86997 | 34873 ft | 493 kts | 154° |
| 2026-05-04 06:52 | -11.08064 | 132.90222 | 34880 ft | 494 kts | 154° |
| 2026-05-04 06:53 | -11.14190 | 132.93468 | 34882 ft | 494 kts | 154° |
| 2026-05-04 06:53 | -11.20304 | 132.96707 | 34883 ft | 493 kts | 154° |
| 2026-05-04 06:54 | -11.26371 | 132.99924 | 34882 ft | 494 kts | 155° |
| 2026-05-04 06:54 | -11.32474 | 133.03160 | 34883 ft | 494 kts | 154° |
| 2026-05-04 06:55 | -11.38585 | 133.06403 | 34879 ft | 494 kts | 154° |
| 2026-05-04 06:55 | -11.44694 | 133.09647 | 34877 ft | 495 kts | 154° |
| 2026-05-04 06:57 | -11.69134 | 133.22636 | 34859 ft | 497 kts | 155° |
| 2026-05-04 06:58 | -11.75268 | 133.25902 | 34859 ft | 497 kts | 155° |
| 2026-05-04 06:58 | -11.81402 | 133.29169 | 34866 ft | 498 kts | 155° |
| 2026-05-04 06:59 | -11.87545 | 133.32442 | 34869 ft | 496 kts | 155° |
| 2026-05-04 06:59 | -11.93689 | 133.35716 | 34873 ft | 497 kts | 155° |
| 2026-05-04 07:01 | -12.18301 | 133.48853 | 34889 ft | 499 kts | 155° |
| 2026-05-04 07:02 | -12.24482 | 133.52156 | 34897 ft | 501 kts | 155° |
| 2026-05-04 07:02 | -12.30613 | 133.55434 | 34902 ft | 500 kts | 155° |
| 2026-05-04 07:03 | -12.36793 | 133.58740 | 34905 ft | 501 kts | 155° |
| 2026-05-04 07:03 | -12.42988 | 133.62056 | 34913 ft | 500 kts | 155° |
| 2026-05-04 07:04 | -12.49181 | 133.65373 | 34916 ft | 501 kts | 154° |
| 2026-05-04 07:04 | -12.55369 | 133.68689 | 34911 ft | 502 kts | 154° |
| 2026-05-04 07:05 | -12.61546 | 133.72002 | 34911 ft | 501 kts | 155° |
| 2026-05-04 07:05 | -12.67764 | 133.75337 | 34917 ft | 502 kts | 155° |
| 2026-05-04 07:06 | -12.77037 | 133.80315 | 34917 ft | 502 kts | 155° |
| 2026-05-04 07:07 | -12.83239 | 133.83647 | 34917 ft | 502 kts | 155° |